Time;durP1;ratioP1;P1;durP2;ratioP2;P2;SDS_P1;SDS_P2;PMS_P1;PMS_P2;Temp;Humidity;BMP_temperature;BMP_pressure;BME280_temperature;BME280_humidity;BME280_pressure;Samples;Min_cycle;Max_cycle;Signal;HPM_P1;HPM_P2
2023/07/12 00:01:18;;;;;;;;;;;18.00;99.90;;;;;;5132775;27;19923;-78
2023/07/12 00:03:44;;;;;;;;;;;18.00;99.90;;;;;;5131763;27;19924;-81
2023/07/12 00:06:11;;;;;;;;;;;18.00;99.90;;;;;;5132766;27;19927;-78
2023/07/12 00:08:37;;;;;;;;;;;18.00;99.90;;;;;;5131314;27;19919;-78
2023/07/12 00:11:02;;;;;;;;;;;17.90;99.90;;;;;;5115104;27;19920;-81
2023/07/12 00:13:34;;;;;;;;;;;17.80;99.90;;;;;;5115652;27;19968;-81
2023/07/12 00:15:59;;;;;;;;;;;17.80;99.90;;;;;;5115476;27;19923;-79
2023/07/12 00:18:25;;;;;;;;;;;17.80;99.90;;;;;;5115562;27;19977;-80
2023/07/12 00:20:51;;;;;;;;;;;17.80;99.90;;;;;;5132325;27;20348;-80
2023/07/12 00:23:18;;;;;;;;;;;17.80;99.90;;;;;;5114964;28;20477;-79
2023/07/12 00:25:48;;;;;;;;;;;17.80;99.90;;;;;;5132242;27;19923;-82
2023/07/12 00:28:33;;;;;;;;;;;17.80;99.90;;;;;;5115307;27;20437;-81
2023/07/12 00:30:58;;;;;;;;;;;17.80;99.90;;;;;;5111698;28;19963;-80
2023/07/12 00:33:24;;;;;;;;;;;17.80;99.90;;;;;;5094699;28;19966;-81
2023/07/12 00:35:50;;;;;;;;;;;17.70;99.90;;;;;;5094556;28;19930;-80
2023/07/12 00:38:17;;;;;;;;;;;17.70;99.90;;;;;;5112094;28;19986;-80
2023/07/12 00:40:46;;;;;;;;;;;17.70;99.90;;;;;;5111058;28;19920;-82
2023/07/12 00:43:27;;;;;;;;;;;17.70;99.90;;;;;;5117822;28;19971;-80
2023/07/12 00:45:54;;;;;;;;;;;17.70;99.90;;;;;;5097639;28;20368;-82
2023/07/12 00:48:22;;;;;;;;;;;17.60;99.90;;;;;;5115005;28;19943;-79
2023/07/12 00:50:48;;;;;;;;;;;17.60;99.90;;;;;;5132027;27;19951;-81
2023/07/12 00:53:15;;;;;;;;;;;17.50;99.90;;;;;;5132545;28;20347;-81
2023/07/12 00:55:58;;;;;;;;;;;17.50;99.90;;;;;;5131738;28;20037;-81
2023/07/12 00:58:25;;;;;;;;;;;17.50;99.90;;;;;;5115263;28;19953;-79
2023/07/12 01:00:51;;;;;;;;;;;17.50;99.90;;;;;;5131802;27;19923;-80
2023/07/12 01:03:18;;;;;;;;;;;17.50;99.90;;;;;;5131609;28;19923;-82
2023/07/12 01:05:50;;;;;;;;;;;17.40;99.90;;;;;;5131402;28;20292;-79
2023/07/12 01:08:15;;;;;;;;;;;17.40;99.90;;;;;;5114308;28;20002;-81
2023/07/12 01:10:41;;;;;;;;;;;17.40;99.90;;;;;;5114189;28;19923;-78
2023/07/12 01:13:08;;;;;;;;;;;17.40;99.90;;;;;;5131858;28;19919;-82
2023/07/12 01:15:35;;;;;;;;;;;17.30;99.90;;;;;;5130975;28;19925;-80
2023/07/12 01:18:01;;;;;;;;;;;17.40;99.90;;;;;;5130629;28;19919;-82
2023/07/12 01:20:27;;;;;;;;;;;17.40;99.90;;;;;;5114966;28;19927;-83
2023/07/12 01:22:54;;;;;;;;;;;17.40;99.90;;;;;;5132917;27;19927;-78
2023/07/12 01:25:34;;;;;;;;;;;17.40;99.90;;;;;;5132910;27;19923;-81
2023/07/12 01:27:59;;;;;;;;;;;17.70;99.90;;;;;;5132052;28;19919;-80
2023/07/12 01:30:25;;;;;;;;;;;17.00;99.90;;;;;;5133347;27;20441;-81
2023/07/12 01:32:52;;;;;;;;;;;17.30;99.90;;;;;;5134994;27;19919;-82
2023/07/12 01:35:18;;;;;;;;;;;17.30;99.90;;;;;;5135563;27;19919;-79
2023/07/12 01:37:43;;;;;;;;;;;17.30;99.90;;;;;;5134745;27;19931;-82
2023/07/12 01:40:09;;;;;;;;;;;17.20;99.90;;;;;;5117787;27;20376;-81
2023/07/12 01:42:35;;;;;;;;;;;17.20;99.90;;;;;;5117435;27;19923;-78
2023/07/12 01:45:00;;;;;;;;;;;17.20;99.90;;;;;;5117575;27;19923;-79
2023/07/12 01:47:26;;;;;;;;;;;17.10;99.90;;;;;;5135278;27;19919;-82
2023/07/12 01:49:51;;;;;;;;;;;17.10;99.90;;;;;;5127809;27;19927;-82
2023/07/12 01:52:17;;;;;;;;;;;17.10;99.90;;;;;;5114665;28;20006;-80
2023/07/12 01:54:42;;;;;;;;;;;17.00;99.90;;;;;;5115133;28;20302;-80
2023/07/12 01:57:08;;;;;;;;;;;17.00;99.90;;;;;;5115449;28;19974;-81
2023/07/12 01:59:34;;;;;;;;;;;17.00;99.90;;;;;;5114193;28;20372;-80
2023/07/12 02:01:59;;;;;;;;;;;17.00;99.90;;;;;;5113851;28;20014;-80
2023/07/12 02:04:25;;;;;;;;;;;17.00;99.90;;;;;;5096993;28;19928;-78
2023/07/12 02:06:51;;;;;;;;;;;17.00;99.90;;;;;;5113941;28;19927;-79
2023/07/12 02:09:16;;;;;;;;;;;17.00;99.90;;;;;;5115447;28;19963;-79
2023/07/12 02:11:42;;;;;;;;;;;17.00;99.90;;;;;;5097114;28;20006;-80
2023/07/12 02:14:07;;;;;;;;;;;17.00;99.90;;;;;;5113868;28;19930;-79
2023/07/12 02:16:33;;;;;;;;;;;17.00;99.90;;;;;;5114293;28;19931;-78
2023/07/12 02:18:58;;;;;;;;;;;17.00;99.90;;;;;;5095681;28;20331;-81
2023/07/12 02:21:24;;;;;;;;;;;17.00;99.90;;;;;;5113117;28;19924;-82
2023/07/12 02:23:51;;;;;;;;;;;17.00;99.90;;;;;;5096168;28;20377;-79
2023/07/12 02:26:18;;;;;;;;;;;16.90;99.90;;;;;;5096695;28;20006;-82
2023/07/12 02:28:47;;;;;;;;;;;16.90;99.90;;;;;;5114330;28;20288;-80
2023/07/12 02:31:20;;;;;;;;;;;16.90;99.90;;;;;;5103147;28;19928;-80
2023/07/12 02:33:48;;;;;;;;;;;16.90;99.90;;;;;;5093428;28;20289;-82
2023/07/12 02:36:14;;;;;;;;;;;16.90;99.90;;;;;;5088192;28;20362;-80
2023/07/12 02:38:39;;;;;;;;;;;16.90;99.90;;;;;;5113381;28;19923;-82
2023/07/12 02:41:05;;;;;;;;;;;16.90;99.90;;;;;;5113296;28;19923;-81
2023/07/12 02:43:31;;;;;;;;;;;16.90;99.90;;;;;;5095944;28;19920;-80
2023/07/12 02:45:57;;;;;;;;;;;16.90;99.90;;;;;;5112885;28;20809;-81
2023/07/12 02:48:22;;;;;;;;;;;16.90;99.90;;;;;;5096017;28;19926;-82
2023/07/12 02:50:48;;;;;;;;;;;16.80;99.90;;;;;;5112732;28;19930;-80
2023/07/12 02:53:17;;;;;;;;;;;16.80;99.90;;;;;;5113326;28;20446;-79
2023/07/12 02:55:43;;;;;;;;;;;16.80;99.90;;;;;;5096314;28;19920;-79
2023/07/12 02:58:09;;;;;;;;;;;16.80;99.90;;;;;;5113201;28;20024;-79
2023/07/12 03:00:34;;;;;;;;;;;16.80;99.90;;;;;;5096420;28;19924;-81
2023/07/12 03:03:00;;;;;;;;;;;16.80;99.90;;;;;;5112439;28;19923;-79
2023/07/12 03:05:25;;;;;;;;;;;16.80;99.90;;;;;;5112608;28;19934;-79
2023/07/12 03:07:54;;;;;;;;;;;16.70;99.90;;;;;;5111894;28;19954;-79
2023/07/12 03:10:19;;;;;;;;;;;16.70;99.90;;;;;;5112855;28;19924;-80
2023/07/12 03:12:45;;;;;;;;;;;16.70;99.90;;;;;;5096068;28;20006;-80
2023/07/12 03:15:10;;;;;;;;;;;16.60;99.90;;;;;;5112739;28;19920;-79
2023/07/12 03:17:36;;;;;;;;;;;16.60;99.90;;;;;;5095834;28;19924;-78
2023/07/12 03:20:04;;;;;;;;;;;16.60;99.90;;;;;;5112416;28;20348;-80
2023/07/12 03:22:30;;;;;;;;;;;16.50;99.90;;;;;;5112968;28;19928;-80
2023/07/12 03:24:55;;;;;;;;;;;16.50;99.90;;;;;;5113118;28;19977;-80
2023/07/12 03:27:21;;;;;;;;;;;16.50;99.90;;;;;;5112506;28;19923;-81
2023/07/12 03:29:46;;;;;;;;;;;16.50;99.90;;;;;;5113338;28;19921;-80
2023/07/12 03:32:19;;;;;;;;;;;16.50;99.90;;;;;;5129982;27;19928;-80
2023/07/12 03:34:44;;;;;;;;;;;16.50;99.90;;;;;;5114952;27;19935;-78
2023/07/12 03:37:11;;;;;;;;;;;16.50;99.90;;;;;;5133298;27;19927;-83
2023/07/12 03:39:37;;;;;;;;;;;16.50;99.90;;;;;;5132801;27;19930;-81
2023/07/12 03:42:03;;;;;;;;;;;16.40;99.90;;;;;;5132798;27;20257;-77
2023/07/12 03:44:29;;;;;;;;;;;16.40;99.90;;;;;;5115990;27;20042;-80
2023/07/12 03:46:54;;;;;;;;;;;16.40;99.90;;;;;;5115112;27;20367;-80
2023/07/12 03:49:20;;;;;;;;;;;16.50;99.90;;;;;;5115067;27;19923;-81
2023/07/12 03:51:45;;;;;;;;;;;16.50;99.90;;;;;;5131507;27;20573;-79
2023/07/12 03:54:12;;;;;;;;;;;16.60;99.90;;;;;;5132367;27;20009;-80
2023/07/12 03:56:37;;;;;;;;;;;16.60;99.90;;;;;;5115897;27;20325;-79
2023/07/12 03:59:08;;;;;;;;;;;16.60;99.90;;;;;;5132307;27;19938;-80
2023/07/12 04:01:34;;;;;;;;;;;16.60;99.90;;;;;;5132886;27;19926;-81
2023/07/12 04:04:00;;;;;;;;;;;16.60;99.90;;;;;;5132604;27;19924;-81
2023/07/12 04:06:26;;;;;;;;;;;16.70;99.90;;;;;;5132700;27;19938;-81
2023/07/12 04:08:53;;;;;;;;;;;16.70;99.90;;;;;;5115027;27;19924;-77
2023/07/12 04:11:24;;;;;;;;;;;16.60;99.90;;;;;;5098845;27;19920;-80
2023/07/12 04:13:50;;;;;;;;;;;16.60;99.90;;;;;;5132184;27;20326;-80
2023/07/12 04:16:15;;;;;;;;;;;16.60;99.90;;;;;;5114848;27;19944;-81
2023/07/12 04:18:41;;;;;;;;;;;16.60;99.90;;;;;;5131893;27;19959;-80
2023/07/12 04:21:13;;;;;;;;;;;16.60;99.90;;;;;;5132055;27;20692;-77
2023/07/12 04:23:39;;;;;;;;;;;16.60;99.90;;;;;;5132206;27;20272;-80
2023/07/12 04:26:05;;;;;;;;;;;16.60;99.90;;;;;;5097666;27;19930;-78
2023/07/12 04:28:31;;;;;;;;;;;16.60;99.90;;;;;;5106253;28;19927;-79
2023/07/12 04:31:04;;;;;;;;;;;16.60;99.90;;;;;;5104808;28;19924;-82
2023/07/12 04:33:30;;;;;;;;;;;16.60;99.90;;;;;;5074773;28;20376;-79
2023/07/12 04:35:57;;;;;;;;;;;16.60;99.90;;;;;;5074610;28;19946;-79
2023/07/12 04:38:29;;;;;;;;;;;16.60;99.90;;;;;;5075335;28;20336;-77
2023/07/12 04:40:56;;;;;;;;;;;16.60;99.90;;;;;;5090476;28;19920;-78
2023/07/12 04:43:22;;;;;;;;;;;16.60;99.90;;;;;;5091670;28;19928;-81
2023/07/12 04:45:48;;;;;;;;;;;16.60;99.90;;;;;;5090350;28;19928;-79
2023/07/12 04:48:14;;;;;;;;;;;16.60;99.90;;;;;;5090456;28;19920;-81
2023/07/12 04:50:39;;;;;;;;;;;16.60;99.90;;;;;;5104478;28;19924;-81
2023/07/12 04:53:05;;;;;;;;;;;16.50;99.90;;;;;;5093354;28;19919;-79
2023/07/12 04:55:31;;;;;;;;;;;16.50;99.90;;;;;;5110951;28;20007;-78
2023/07/12 04:57:56;;;;;;;;;;;16.50;99.90;;;;;;5093738;28;19920;-79
2023/07/12 05:00:25;;;;;;;;;;;16.50;99.90;;;;;;5094247;28;19957;-79
2023/07/12 05:02:54;;;;;;;;;;;16.50;99.90;;;;;;5077124;28;19920;-81
2023/07/12 05:05:21;;;;;;;;;;;16.50;99.90;;;;;;5097467;28;19924;-79
2023/07/12 05:07:48;;;;;;;;;;;16.50;99.90;;;;;;5116400;28;20327;-79
2023/07/12 05:10:14;;;;;;;;;;;16.50;99.90;;;;;;5115078;28;19926;-82
2023/07/12 05:12:40;;;;;;;;;;;16.60;99.90;;;;;;5081241;28;19920;-78
2023/07/12 05:15:06;;;;;;;;;;;16.70;99.90;;;;;;5098025;28;19919;-78
2023/07/12 05:17:38;;;;;;;;;;;16.80;99.90;;;;;;5115791;28;20599;-80
2023/07/12 05:20:06;;;;;;;;;;;16.90;99.90;;;;;;5099201;28;19934;-79
2023/07/12 05:22:33;;;;;;;;;;;17.00;99.90;;;;;;5115979;28;19931;-79
2023/07/12 05:25:05;;;;;;;;;;;17.10;99.90;;;;;;5103291;28;19935;-80
2023/07/12 05:27:31;;;;;;;;;;;17.20;99.90;;;;;;5077564;28;20377;-80
2023/07/12 05:29:56;;;;;;;;;;;17.30;99.90;;;;;;5094215;28;19928;-78
2023/07/12 05:32:22;;;;;;;;;;;17.40;99.90;;;;;;5094482;28;19930;-80
2023/07/12 05:34:48;;;;;;;;;;;17.40;99.90;;;;;;5077464;28;19920;-78
2023/07/12 05:37:14;;;;;;;;;;;17.40;99.90;;;;;;5093878;28;19924;-77
2023/07/12 05:39:40;;;;;;;;;;;17.40;99.90;;;;;;5094933;28;20222;-78
2023/07/12 05:42:06;;;;;;;;;;;17.50;99.90;;;;;;5093889;28;19931;-80
2023/07/12 05:44:33;;;;;;;;;;;17.60;99.90;;;;;;5076813;28;19924;-80
2023/07/12 05:46:59;;;;;;;;;;;17.60;99.90;;;;;;5076353;28;19946;-77
2023/07/12 05:49:24;;;;;;;;;;;17.70;99.90;;;;;;5079540;28;20373;-82
2023/07/12 05:51:50;;;;;;;;;;;17.70;99.90;;;;;;5113497;28;19920;-78
2023/07/12 05:54:16;;;;;;;;;;;17.80;99.90;;;;;;5113037;28;20410;-80
2023/07/12 05:56:47;;;;;;;;;;;17.80;99.90;;;;;;5098259;28;20015;-78
2023/07/12 05:59:13;;;;;;;;;;;17.80;99.90;;;;;;5096651;28;20010;-78
2023/07/12 06:01:39;;;;;;;;;;;17.60;99.90;;;;;;5114039;28;20016;-79
2023/07/12 06:04:07;;;;;;;;;;;17.50;99.90;;;;;;5115158;28;20010;-81
2023/07/12 06:06:33;;;;;;;;;;;17.40;99.90;;;;;;5114504;28;20021;-78
2023/07/12 06:08:59;;;;;;;;;;;17.40;99.90;;;;;;5113304;28;19927;-78
2023/07/12 06:11:25;;;;;;;;;;;17.30;99.90;;;;;;5096992;28;19924;-80
2023/07/12 06:13:50;;;;;;;;;;;17.30;99.90;;;;;;5096445;28;19927;-79
2023/07/12 06:16:16;;;;;;;;;;;17.40;99.90;;;;;;5112127;28;19989;-78
2023/07/12 06:18:41;;;;;;;;;;;17.50;99.90;;;;;;5113314;28;19923;-79
2023/07/12 06:21:09;;;;;;;;;;;17.60;99.90;;;;;;5095772;28;19927;-80
2023/07/12 06:23:35;;;;;;;;;;;17.70;99.90;;;;;;5095383;28;19924;-79
2023/07/12 06:26:03;;;;;;;;;;;17.80;99.90;;;;;;5112741;28;20373;-79
2023/07/12 06:28:28;;;;;;;;;;;18.00;99.90;;;;;;5096046;28;19924;-80
2023/07/12 06:30:54;;;;;;;;;;;18.20;99.90;;;;;;5098987;27;19924;-80
2023/07/12 06:33:20;;;;;;;;;;;18.30;99.90;;;;;;5116095;27;19920;-79
2023/07/12 06:35:45;;;;;;;;;;;18.50;99.90;;;;;;5133284;27;19920;-80
2023/07/12 06:38:11;;;;;;;;;;;18.70;99.90;;;;;;5133410;27;20393;-79
2023/07/12 06:40:37;;;;;;;;;;;18.90;99.90;;;;;;5133622;27;19989;-80
2023/07/12 06:43:03;;;;;;;;;;;19.20;99.90;;;;;;5133134;27;20373;-78
2023/07/12 06:45:28;;;;;;;;;;;19.30;99.90;;;;;;5115878;27;19928;-80
2023/07/12 06:47:54;;;;;;;;;;;19.20;99.90;;;;;;5133046;27;19976;-78
2023/07/12 06:50:20;;;;;;;;;;;19.20;99.90;;;;;;5121572;27;20288;-79
2023/07/12 06:52:46;;;;;;;;;;;19.20;99.90;;;;;;5112399;28;19973;-79
2023/07/12 06:55:12;;;;;;;;;;;19.30;99.90;;;;;;5111992;28;19926;-79
2023/07/12 06:57:37;;;;;;;;;;;19.30;99.90;;;;;;5094790;28;19924;-77
2023/07/12 07:00:05;;;;;;;;;;;19.30;99.90;;;;;;5111725;28;19955;-78
2023/07/12 07:02:31;;;;;;;;;;;19.30;99.90;;;;;;5111985;28;20361;-79
2023/07/12 07:04:56;;;;;;;;;;;19.40;99.90;;;;;;5111446;28;19969;-78
2023/07/12 07:07:22;;;;;;;;;;;19.60;99.90;;;;;;5112669;28;19920;-80
2023/07/12 07:09:47;;;;;;;;;;;19.90;99.90;;;;;;5094908;28;20010;-78
2023/07/12 07:12:13;;;;;;;;;;;20.00;99.90;;;;;;5094506;28;19924;-80
2023/07/12 07:14:39;;;;;;;;;;;20.10;99.90;;;;;;5111657;28;19943;-80
2023/07/12 07:17:04;;;;;;;;;;;20.30;99.90;;;;;;5111308;28;19928;-78
2023/07/12 07:19:30;;;;;;;;;;;20.40;99.90;;;;;;5112007;28;19919;-78
2023/07/12 07:21:58;;;;;;;;;;;20.10;99.90;;;;;;5111407;28;19930;-76
2023/07/12 07:24:30;;;;;;;;;;;19.90;99.90;;;;;;5094782;28;19928;-78
2023/07/12 07:26:56;;;;;;;;;;;19.80;99.90;;;;;;5093950;28;20384;-79
2023/07/12 07:29:21;;;;;;;;;;;19.90;99.90;;;;;;5111866;28;19928;-79
2023/07/12 07:31:48;;;;;;;;;;;20.00;99.90;;;;;;5111956;28;20327;-80
2023/07/12 07:34:14;;;;;;;;;;;20.20;99.90;;;;;;5094881;28;20375;-78
2023/07/12 07:36:40;;;;;;;;;;;20.20;99.90;;;;;;5094747;28;19977;-79
2023/07/12 07:39:06;;;;;;;;;;;20.10;99.90;;;;;;5094646;28;20329;-79
2023/07/12 07:41:32;;;;;;;;;;;20.00;99.90;;;;;;5094948;28;19920;-79
2023/07/12 07:44:01;;;;;;;;;;;20.00;99.90;;;;;;5112566;28;19924;-78
2023/07/12 07:46:26;;;;;;;;;;;20.00;99.90;;;;;;5095296;28;19924;-77
2023/07/12 07:48:52;;;;;;;;;;;20.00;99.90;;;;;;5111730;28;20490;-77
2023/07/12 07:51:17;;;;;;;;;;;19.90;99.90;;;;;;5111598;28;19919;-78
2023/07/12 07:53:43;;;;;;;;;;;20.00;99.90;;;;;;5094866;28;20421;-78
2023/07/12 07:56:09;;;;;;;;;;;20.20;99.90;;;;;;5094395;28;19927;-78
2023/07/12 07:58:34;;;;;;;;;;;20.10;99.90;;;;;;5111809;28;20018;-77
2023/07/12 08:01:00;;;;;;;;;;;20.00;99.90;;;;;;5094724;28;20654;-79
2023/07/12 08:03:26;;;;;;;;;;;19.80;99.90;;;;;;5095053;28;19927;-80
2023/07/12 08:05:51;;;;;;;;;;;19.70;99.90;;;;;;5111586;28;19941;-79
2023/07/12 08:08:19;;;;;;;;;;;19.60;99.90;;;;;;5111797;28;19926;-80
2023/07/12 08:10:45;;;;;;;;;;;19.60;99.90;;;;;;5094434;28;19927;-78
2023/07/12 08:13:12;;;;;;;;;;;19.50;99.90;;;;;;5093849;28;19968;-78
2023/07/12 08:15:39;;;;;;;;;;;19.40;99.90;;;;;;5110983;28;19919;-77
2023/07/12 08:18:04;;;;;;;;;;;19.10;99.90;;;;;;5110629;28;20434;-78
2023/07/12 08:20:33;;;;;;;;;;;19.00;99.90;;;;;;5093596;28;20369;-80
2023/07/12 08:22:59;;;;;;;;;;;19.00;99.90;;;;;;5094503;28;19973;-77
2023/07/12 08:25:24;;;;;;;;;;;19.00;99.90;;;;;;5111699;28;20293;-81
2023/07/12 08:27:50;;;;;;;;;;;18.90;99.90;;;;;;5103952;28;19920;-79
2023/07/12 08:30:15;;;;;;;;;;;18.80;99.90;;;;;;5139193;27;19958;-78
2023/07/12 08:32:42;;;;;;;;;;;18.70;99.90;;;;;;5117503;28;19924;-82
2023/07/12 08:35:09;;;;;;;;;;;18.60;99.90;;;;;;5111827;28;19919;-80
2023/07/12 08:37:35;;;;;;;;;;;18.40;99.90;;;;;;5112407;28;19920;-79
2023/07/12 08:40:01;;;;;;;;;;;18.30;99.90;;;;;;5077660;28;20391;-79
2023/07/12 08:42:37;;;;;;;;;;;18.30;99.90;;;;;;5094873;28;19924;-80
2023/07/12 08:45:11;;;;;;;;;;;18.40;99.90;;;;;;5112284;28;19928;-83
2023/07/12 08:47:38;;;;;;;;;;;18.50;99.90;;;;;;5112468;28;19970;-81
2023/07/12 08:50:13;;;;;;;;;;;18.70;99.90;;;;;;5104029;28;19923;-82
2023/07/12 08:52:40;;;;;;;;;;;18.80;99.90;;;;;;5092617;28;19928;-79
2023/07/12 08:55:12;;;;;;;;;;;18.90;99.90;;;;;;5074589;28;19927;-83
2023/07/12 08:57:39;;;;;;;;;;;19.00;99.90;;;;;;5074839;28;19926;-80
2023/07/12 09:00:07;;;;;;;;;;;19.10;99.90;;;;;;5074798;28;19924;-80
2023/07/12 09:02:34;;;;;;;;;;;19.30;99.90;;;;;;5091933;28;19974;-84
2023/07/12 09:05:11;;;;;;;;;;;19.40;99.90;;;;;;5075424;28;20434;-81
2023/07/12 09:07:37;;;;;;;;;;;19.60;99.90;;;;;;5091172;28;19924;-79
2023/07/12 09:10:04;;;;;;;;;;;19.80;99.90;;;;;;5091178;28;19973;-80
2023/07/12 09:12:30;;;;;;;;;;;19.90;99.90;;;;;;5090523;28;19920;-79
2023/07/12 09:14:58;;;;;;;;;;;19.90;99.90;;;;;;5091188;28;19960;-82
2023/07/12 09:17:24;;;;;;;;;;;19.80;99.90;;;;;;5090457;28;19920;-84
2023/07/12 09:19:50;;;;;;;;;;;19.90;99.90;;;;;;5090543;28;19920;-84
2023/07/12 09:22:17;;;;;;;;;;;20.00;99.90;;;;;;5090568;28;19973;-79
2023/07/12 09:24:51;;;;;;;;;;;20.20;99.90;;;;;;5092073;28;19931;-84
2023/07/12 09:27:20;;;;;;;;;;;20.40;99.90;;;;;;5073801;28;19924;-80
2023/07/12 09:29:45;;;;;;;;;;;20.50;99.90;;;;;;5074184;28;20058;-80
2023/07/12 09:32:17;;;;;;;;;;;20.60;99.90;;;;;;5087731;28;19949;-81
2023/07/12 09:34:45;;;;;;;;;;;20.50;99.90;;;;;;5111159;28;19924;-78
2023/07/12 09:37:14;;;;;;;;;;;20.30;99.90;;;;;;5094046;28;19923;-81
2023/07/12 09:39:39;;;;;;;;;;;20.20;99.90;;;;;;5111252;28;19920;-80
2023/07/12 09:42:05;;;;;;;;;;;20.20;99.90;;;;;;5111080;28;20410;-81
2023/07/12 09:44:30;;;;;;;;;;;20.20;99.90;;;;;;5110508;28;19924;-79
2023/07/12 09:47:15;;;;;;;;;;;20.30;99.90;;;;;;5094604;28;19931;-78
2023/07/12 09:49:44;;;;;;;;;;;20.50;99.90;;;;;;5115666;27;19920;-83
2023/07/12 09:52:10;;;;;;;;;;;20.90;99.90;;;;;;5116987;27;19927;-80
2023/07/12 09:54:51;;;;;;;;;;;21.10;99.90;;;;;;5136000;27;19927;-78
2023/07/12 09:57:16;;;;;;;;;;;21.20;99.90;;;;;;5119029;27;19926;-79
2023/07/12 10:00:02;;;;;;;;;;;21.30;99.90;;;;;;5135427;27;19920;-80
2023/07/12 10:02:36;;;;;;;;;;;21.60;99.90;;;;;;5135024;27;19947;-81
2023/07/12 10:05:12;;;;;;;;;;;22.00;99.90;;;;;;5134304;27;19927;-80
2023/07/12 10:07:37;;;;;;;;;;;21.90;99.90;;;;;;5134796;27;20035;-80
2023/07/12 10:10:10;;;;;;;;;;;21.50;99.90;;;;;;5134999;27;20674;-82
2023/07/12 10:12:39;;;;;;;;;;;21.30;99.90;;;;;;5135473;27;20006;-79
2023/07/12 10:15:04;;;;;;;;;;;21.00;99.90;;;;;;5135687;27;20326;-80
2023/07/12 10:17:33;;;;;;;;;;;20.80;99.90;;;;;;5117624;27;19926;-81
2023/07/12 10:20:00;;;;;;;;;;;20.80;99.90;;;;;;5117326;27;20372;-79
2023/07/12 10:22:33;;;;;;;;;;;21.10;99.90;;;;;;5134482;27;20234;-79
2023/07/12 10:25:00;;;;;;;;;;;21.40;99.90;;;;;;5133945;27;19927;-81
2023/07/12 10:27:28;;;;;;;;;;;21.60;99.90;;;;;;5117264;27;20375;-80
2023/07/12 10:29:57;;;;;;;;;;;21.80;99.90;;;;;;5134451;27;19992;-80
2023/07/12 10:32:36;;;;;;;;;;;21.60;99.90;;;;;;5116883;27;19934;-81
2023/07/12 10:35:16;;;;;;;;;;;21.40;99.90;;;;;;5117103;27;20680;-79
2023/07/12 10:38:03;;;;;;;;;;;21.40;99.90;;;;;;5117060;27;19934;-80
2023/07/12 10:40:52;;;;;;;;;;;21.50;99.90;;;;;;5133774;27;19975;-78
2023/07/12 10:43:35;;;;;;;;;;;21.60;99.90;;;;;;5122849;27;19920;-80
2023/07/12 10:46:24;;;;;;;;;;;21.90;99.90;;;;;;5116711;27;19930;-82
2023/07/12 10:48:51;;;;;;;;;;;22.10;99.90;;;;;;5117319;27;20372;-82
2023/07/12 10:51:33;;;;;;;;;;;21.90;99.90;;;;;;5134177;27;19926;-81
2023/07/12 10:53:59;;;;;;;;;;;21.80;99.90;;;;;;5116398;27;19988;-82
2023/07/12 10:56:26;;;;;;;;;;;21.70;99.90;;;;;;5133190;27;19927;-78
2023/07/12 10:59:00;;;;;;;;;;;21.80;99.90;;;;;;5134147;27;20276;-83
2023/07/12 11:01:41;;;;;;;;;;;22.00;99.90;;;;;;5134456;27;19926;-79
2023/07/12 11:04:27;;;;;;;;;;;22.20;99.90;;;;;;5134244;27;19920;-82
2023/07/12 11:07:07;;;;;;;;;;;22.40;99.90;;;;;;5119652;27;20620;-80
2023/07/12 11:09:42;;;;;;;;;;;22.60;99.90;;;;;;5115819;27;19981;-79
2023/07/12 11:12:09;;;;;;;;;;;22.70;99.90;;;;;;5116550;27;19931;-81
2023/07/12 11:14:37;;;;;;;;;;;22.80;99.90;;;;;;5116385;27;20347;-79
2023/07/12 11:17:06;;;;;;;;;;;23.10;99.90;;;;;;5134997;27;20368;-80
2023/07/12 11:19:31;;;;;;;;;;;23.00;99.90;;;;;;5134408;27;19941;-81
2023/07/12 11:22:02;;;;;;;;;;;22.70;99.90;;;;;;5118203;27;19920;-81
2023/07/12 11:24:35;;;;;;;;;;;22.30;99.90;;;;;;5134123;27;20003;-83
2023/07/12 11:27:01;;;;;;;;;;;22.10;99.90;;;;;;5135593;27;19942;-83
2023/07/12 11:29:30;;;;;;;;;;;22.20;99.90;;;;;;5134085;27;19924;-80
2023/07/12 11:32:07;;;;;;;;;;;22.50;99.90;;;;;;5116154;27;19927;-81
2023/07/12 11:34:35;;;;;;;;;;;22.80;99.90;;;;;;5134580;27;19959;-79
2023/07/12 11:37:02;;;;;;;;;;;22.90;99.90;;;;;;5134420;27;20014;-85
2023/07/12 11:39:28;;;;;;;;;;;22.90;99.90;;;;;;5116476;27;20010;-80
2023/07/12 11:41:55;;;;;;;;;;;22.60;99.90;;;;;;5100087;27;20010;-82
2023/07/12 11:44:21;;;;;;;;;;;22.50;99.90;;;;;;5115477;27;20390;-78
2023/07/12 11:46:50;;;;;;;;;;;22.50;99.90;;;;;;5133181;27;19920;-78
2023/07/12 11:49:20;;;;;;;;;;;22.70;99.90;;;;;;5130880;27;19924;-79
2023/07/12 11:51:49;;;;;;;;;;;22.90;99.90;;;;;;5111626;28;19997;-78
2023/07/12 11:54:21;;;;;;;;;;;23.10;99.90;;;;;;5094955;28;19966;-80
2023/07/12 11:56:48;;;;;;;;;;;23.50;99.90;;;;;;5112203;28;19927;-79
2023/07/12 11:59:24;;;;;;;;;;;23.60;99.90;;;;;;5110037;27;19924;-81
2023/07/12 12:01:51;;;;;;;;;;;23.30;99.90;;;;;;5132527;27;19968;-79
2023/07/12 12:04:19;;;;;;;;;;;23.00;99.90;;;;;;5115463;27;20325;-81
2023/07/12 12:06:45;;;;;;;;;;;22.90;99.90;;;;;;5131978;27;19923;-78
2023/07/12 12:09:11;;;;;;;;;;;22.80;99.90;;;;;;5133454;27;19930;-80
2023/07/12 12:11:38;;;;;;;;;;;22.90;99.90;;;;;;5115413;27;19955;-84
2023/07/12 12:14:17;;;;;;;;;;;23.10;99.90;;;;;;5132127;27;20413;-79
2023/07/12 12:16:52;;;;;;;;;;;23.30;99.90;;;;;;5133844;27;20380;-80
2023/07/12 12:19:18;;;;;;;;;;;23.50;99.90;;;;;;5132787;27;19920;-81
2023/07/12 12:21:51;;;;;;;;;;;23.80;99.90;;;;;;5132539;27;20407;-80
2023/07/12 12:24:18;;;;;;;;;;;23.80;98.90;;;;;;5133043;27;19923;-82
2023/07/12 12:26:45;;;;;;;;;;;23.80;99.30;;;;;;5132627;27;19927;-77
2023/07/12 12:29:14;;;;;;;;;;;23.80;99.70;;;;;;5116158;27;19958;-84
2023/07/12 12:31:53;;;;;;;;;;;23.90;98.50;;;;;;5115558;27;20258;-82
2023/07/12 12:34:20;;;;;;;;;;;23.90;96.80;;;;;;5131813;27;19931;-79
2023/07/12 12:37:21;;;;;;;;;;;23.80;96.70;;;;;;5131651;27;19924;-78
2023/07/12 12:40:00;;;;;;;;;;;23.90;97.70;;;;;;5068671;28;19928;-81
2023/07/12 12:42:27;;;;;;;;;;;24.10;98.30;;;;;;5105360;28;20336;-82
2023/07/12 12:44:55;;;;;;;;;;;24.10;97.80;;;;;;5132123;28;19956;-81
2023/07/12 12:47:30;;;;;;;;;;;24.00;98.70;;;;;;5131756;28;20359;-78
2023/07/12 12:49:57;;;;;;;;;;;24.00;97.00;;;;;;5107767;28;20288;-79
2023/07/12 12:52:25;;;;;;;;;;;23.80;96.90;;;;;;5111389;28;19932;-81
2023/07/12 12:54:51;;;;;;;;;;;23.70;96.60;;;;;;5121193;28;19920;-81
2023/07/12 12:57:19;;;;;;;;;;;23.70;96.50;;;;;;5114347;28;19919;-84
2023/07/12 12:59:46;;;;;;;;;;;23.80;96.80;;;;;;5115102;28;20353;-81
2023/07/12 13:02:23;;;;;;;;;;;24.00;96.10;;;;;;5115591;28;20578;-83
2023/07/12 13:04:49;;;;;;;;;;;24.00;95.50;;;;;;5131320;28;20300;-81
2023/07/12 13:07:20;;;;;;;;;;;24.00;96.10;;;;;;5133061;28;19927;-80
2023/07/12 13:09:45;;;;;;;;;;;24.00;95.40;;;;;;5114087;28;20361;-82
2023/07/12 13:12:15;;;;;;;;;;;24.10;96.00;;;;;;5133008;27;19929;-84
2023/07/12 13:14:41;;;;;;;;;;;24.20;96.10;;;;;;5131971;28;20006;-81
2023/07/12 13:17:12;;;;;;;;;;;24.20;95.40;;;;;;5131981;28;20072;-80
2023/07/12 13:19:38;;;;;;;;;;;24.10;94.50;;;;;;5132386;28;19923;-79
2023/07/12 13:22:04;;;;;;;;;;;24.00;92.80;;;;;;5131868;28;20399;-81
2023/07/12 13:24:29;;;;;;;;;;;24.00;94.90;;;;;;5131819;27;19926;-79
2023/07/12 13:26:55;;;;;;;;;;;24.20;93.80;;;;;;5118145;27;20018;-82
2023/07/12 13:29:20;;;;;;;;;;;24.30;94.50;;;;;;5118646;27;19924;-84
2023/07/12 13:31:46;;;;;;;;;;;24.40;94.20;;;;;;5118152;27;19927;-81
2023/07/12 13:34:12;;;;;;;;;;;24.40;95.20;;;;;;5137046;27;19943;-80
2023/07/12 13:36:39;;;;;;;;;;;24.40;94.40;;;;;;5118050;27;20268;-80
2023/07/12 13:39:13;;;;;;;;;;;24.60;94.70;;;;;;5100693;27;19924;-83
2023/07/12 13:41:40;;;;;;;;;;;24.50;95.10;;;;;;5135462;27;20414;-80
2023/07/12 13:44:05;;;;;;;;;;;24.30;93.70;;;;;;5101020;27;20528;-83
2023/07/12 13:46:32;;;;;;;;;;;24.30;94.20;;;;;;5100383;27;19927;-81
2023/07/12 13:48:58;;;;;;;;;;;24.40;91.90;;;;;;5118745;27;19987;-79
2023/07/12 13:51:23;;;;;;;;;;;24.50;92.00;;;;;;5097934;28;19923;-81
2023/07/12 13:53:50;;;;;;;;;;;24.60;92.30;;;;;;5096685;28;19920;-82
2023/07/12 13:56:16;;;;;;;;;;;24.70;92.20;;;;;;5097322;28;19955;-82
2023/07/12 13:58:41;;;;;;;;;;;24.80;92.80;;;;;;5114732;28;19963;-81
2023/07/12 14:01:10;;;;;;;;;;;24.90;92.90;;;;;;5097834;28;20602;-81
2023/07/12 14:03:36;;;;;;;;;;;25.00;90.60;;;;;;5115447;28;20006;-84
2023/07/12 14:06:04;;;;;;;;;;;25.00;90.10;;;;;;5131820;27;20022;-78
2023/07/12 14:08:31;;;;;;;;;;;24.90;91.00;;;;;;5114359;28;19919;-82
2023/07/12 14:11:00;;;;;;;;;;;25.10;93.00;;;;;;5116275;28;20313;-83
2023/07/12 14:13:25;;;;;;;;;;;25.40;92.70;;;;;;5114055;28;19998;-81
2023/07/12 14:15:51;;;;;;;;;;;25.50;91.50;;;;;;5096447;28;19920;-81
2023/07/12 14:18:17;;;;;;;;;;;25.60;88.40;;;;;;5114519;28;19920;-80
2023/07/12 14:20:46;;;;;;;;;;;25.50;87.50;;;;;;5132484;27;20098;-81